createdAt,value
2023-09-06T00:00:09.766Z,23.01
2023-09-06T00:02:37.539Z,22.99
2023-09-06T00:05:06.456Z,22.98
2023-09-06T00:07:35.756Z,22.94
2023-09-06T00:10:03.620Z,22.93
2023-09-06T00:12:31.542Z,22.92
2023-09-06T00:14:59.318Z,22.89
2023-09-06T00:17:27.155Z,22.87
2023-09-06T00:19:54.948Z,22.86
2023-09-06T00:22:22.767Z,22.84
2023-09-06T00:24:51.981Z,22.82
2023-09-06T00:27:19.776Z,22.81
2023-09-06T00:29:48.227Z,22.74
2023-09-06T00:32:16.019Z,22.77
2023-09-06T00:34:43.815Z,22.78
2023-09-06T00:37:11.711Z,22.77
2023-09-06T00:39:40.116Z,22.77
2023-09-06T00:42:09.316Z,22.74
2023-09-06T00:44:37.042Z,22.72
2023-09-06T00:47:05.259Z,22.72
2023-09-06T00:49:33.182Z,22.71
2023-09-06T00:52:01.079Z,22.68
2023-09-06T00:54:29.259Z,22.68
2023-09-06T00:56:57.194Z,22.66
2023-09-06T00:59:28.115Z,22.64
2023-09-06T01:01:56.510Z,22.62
2023-09-06T01:04:26.574Z,22.62
2023-09-06T01:06:58.853Z,22.59
2023-09-06T01:09:27.380Z,22.57
2023-09-06T01:11:55.108Z,22.56
2023-09-06T01:14:22.923Z,22.54
2023-09-06T01:16:55.602Z,22.53
2023-09-06T01:19:27.945Z,22.52
2023-09-06T01:22:06.723Z,22.48
2023-09-06T01:24:36.529Z,22.44
2023-09-06T01:27:06.673Z,22.45
2023-09-06T01:29:36.058Z,22.43
2023-09-06T01:32:06.354Z,22.40
2023-09-06T01:34:34.265Z,22.40
2023-09-06T01:37:02.065Z,22.38
2023-09-06T01:39:29.816Z,22.36
2023-09-06T01:41:58.981Z,22.32
2023-09-06T01:44:28.186Z,22.32
2023-09-06T01:46:56.135Z,22.29
2023-09-06T01:49:24.072Z,22.27
2023-09-06T01:51:51.866Z,22.25
2023-09-06T01:54:19.861Z,22.24
2023-09-06T01:56:47.660Z,22.22
2023-09-06T01:59:16.795Z,22.19
2023-09-06T02:01:44.670Z,22.18
2023-09-06T02:04:12.569Z,22.17
2023-09-06T02:06:40.481Z,22.15
2023-09-06T02:09:08.428Z,22.13
2023-09-06T02:11:36.241Z,22.12
2023-09-06T02:14:04.015Z,22.09
2023-09-06T02:16:33.190Z,22.09
2023-09-06T02:19:01.110Z,22.06
2023-09-06T02:21:29.652Z,22.06
2023-09-06T02:23:58.089Z,22.03
2023-09-06T02:26:25.938Z,22.01
2023-09-06T02:28:53.686Z,21.99
2023-09-06T02:31:21.565Z,21.99
2023-09-06T02:33:50.733Z,21.98
2023-09-06T02:36:18.491Z,21.97
2023-09-06T02:38:48.279Z,21.95
2023-09-06T02:41:16.252Z,21.92
2023-09-06T02:43:43.982Z,21.92
2023-09-06T02:46:13.601Z,21.91
2023-09-06T02:48:42.088Z,21.90
2023-09-06T02:51:11.496Z,21.89
2023-09-06T02:53:45.343Z,21.87
2023-09-06T02:56:15.146Z,21.85
2023-09-06T02:58:44.081Z,21.84
2023-09-06T03:01:20.750Z,21.83
2023-09-06T03:03:52.426Z,21.79
2023-09-06T03:06:33.589Z,21.79
2023-09-06T03:09:01.960Z,21.77
2023-09-06T03:11:29.684Z,21.76
2023-09-06T03:13:58.465Z,21.74
2023-09-06T03:16:26.490Z,21.72
2023-09-06T03:18:55.304Z,21.70
2023-09-06T03:21:25.325Z,21.69
2023-09-06T03:23:54.006Z,21.64
2023-09-06T03:26:23.989Z,21.64
2023-09-06T03:28:56.228Z,21.62
2023-09-06T03:31:26.255Z,21.56
2023-09-06T03:33:54.207Z,21.58
2023-09-06T03:36:26.073Z,21.57
2023-09-06T03:38:56.637Z,21.55
2023-09-06T03:41:24.459Z,21.54
2023-09-06T03:43:55.144Z,21.52
2023-09-06T03:46:23.641Z,21.50
2023-09-06T03:48:51.662Z,21.48
2023-09-06T03:51:20.076Z,21.46
2023-09-06T03:53:48.882Z,21.43
2023-09-06T03:56:18.092Z,21.43
2023-09-06T03:58:45.892Z,21.40
2023-09-06T04:01:16.899Z,21.39
2023-09-06T04:03:45.048Z,21.38
2023-09-06T04:06:13.148Z,21.36
2023-09-06T04:08:41.183Z,21.34
2023-09-06T04:11:11.905Z,21.30
2023-09-06T04:13:44.631Z,21.29
2023-09-06T04:16:12.576Z,21.28
2023-09-06T04:18:42.838Z,21.27
2023-09-06T04:21:12.135Z,21.22
2023-09-06T04:23:40.540Z,21.24
2023-09-06T04:26:08.882Z,21.23
2023-09-06T04:28:37.142Z,21.19
2023-09-06T04:31:06.620Z,21.19
2023-09-06T04:33:34.378Z,21.17
2023-09-06T04:36:03.928Z,21.17
2023-09-06T04:38:32.484Z,21.13
2023-09-06T04:41:00.950Z,21.13
2023-09-06T04:43:29.261Z,21.12
2023-09-06T04:45:57.301Z,21.10
2023-09-06T04:48:26.657Z,21.06
2023-09-06T04:50:57.561Z,20.92
2023-09-06T04:53:25.366Z,21.05
2023-09-06T04:55:53.949Z,21.05
2023-09-06T04:58:21.878Z,21.02
2023-09-06T05:00:50.518Z,21.00
2023-09-06T05:03:20.029Z,20.99
2023-09-06T05:05:49.979Z,20.96
2023-09-06T05:08:18.086Z,20.95
2023-09-06T05:10:45.887Z,20.93
2023-09-06T05:13:13.747Z,20.93
2023-09-06T05:15:41.721Z,20.92
2023-09-06T05:18:10.237Z,20.91
2023-09-06T05:20:40.522Z,20.89
2023-09-06T05:23:10.985Z,20.84
2023-09-06T05:25:39.374Z,20.86
2023-09-06T05:28:09.378Z,20.79
2023-09-06T05:30:39.893Z,20.85
2023-09-06T05:33:08.638Z,20.83
2023-09-06T05:35:36.564Z,20.82
2023-09-06T05:38:05.344Z,20.79
2023-09-06T05:40:35.751Z,20.78
2023-09-06T05:43:05.185Z,20.77
2023-09-06T05:45:33.324Z,20.76
2023-09-06T05:48:01.234Z,20.75
2023-09-06T05:50:29.289Z,20.75
2023-09-06T05:52:57.327Z,20.71
2023-09-06T05:55:25.414Z,20.71
2023-09-06T05:57:54.717Z,20.70
2023-09-06T06:00:23.732Z,20.70
2023-09-06T06:02:52.071Z,20.69
2023-09-06T06:05:20.681Z,20.67
2023-09-06T06:07:48.603Z,20.65
2023-09-06T06:10:16.405Z,20.62
2023-09-06T06:12:44.501Z,20.63
2023-09-06T06:15:14.722Z,20.54
2023-09-06T06:17:43.267Z,20.61
2023-09-06T06:20:12.599Z,20.63
2023-09-06T06:22:41.372Z,20.63
2023-09-06T06:25:11.531Z,20.63
2023-09-06T06:27:40.558Z,20.63
2023-09-06T06:30:10.053Z,20.59
2023-09-06T06:32:39.549Z,20.64
2023-09-06T06:35:09.993Z,20.65
2023-09-06T06:37:37.812Z,20.67
2023-09-06T06:40:07.294Z,20.66
2023-09-06T06:42:35.588Z,20.68
2023-09-06T06:45:05.778Z,20.67
2023-09-06T06:47:33.617Z,20.66
2023-09-06T06:50:07.152Z,20.67
2023-09-06T06:52:37.383Z,20.67
2023-09-06T06:55:06.123Z,20.69
2023-09-06T06:57:34.563Z,20.70
2023-09-06T07:00:06.849Z,20.68
2023-09-06T07:02:36.035Z,20.71
2023-09-06T07:05:05.928Z,20.70
2023-09-06T07:07:33.731Z,20.70
2023-09-06T07:10:02.696Z,20.71
2023-09-06T07:12:30.551Z,20.71
2023-09-06T07:14:59.621Z,20.71
2023-09-06T07:17:27.451Z,20.73
2023-09-06T07:19:55.366Z,20.73
2023-09-06T07:22:24.575Z,20.72
2023-09-06T07:24:52.677Z,20.72
2023-09-06T07:27:22.125Z,20.72
2023-09-06T07:29:50.025Z,20.72
2023-09-06T07:32:17.745Z,20.74
2023-09-06T07:34:46.266Z,20.73
2023-09-06T07:37:13.989Z,20.73
2023-09-06T07:39:43.136Z,20.75
2023-09-06T07:42:10.923Z,20.74
2023-09-06T07:44:38.724Z,20.76
2023-09-06T07:47:06.606Z,20.77
2023-09-06T07:49:34.662Z,20.79
2023-09-06T07:52:06.216Z,20.80
2023-09-06T07:54:34.275Z,20.81
2023-09-06T07:57:03.531Z,20.83
2023-09-06T07:59:31.327Z,20.84
2023-09-06T08:01:59.151Z,20.85
2023-09-06T08:04:27.081Z,20.86
2023-09-06T08:06:57.016Z,20.87
2023-09-06T08:09:25.639Z,20.89
2023-09-06T08:11:53.662Z,20.90
2023-09-06T08:14:22.978Z,20.91
2023-09-06T08:16:50.867Z,20.92
2023-09-06T08:19:18.726Z,20.92
2023-09-06T08:21:46.530Z,20.93
2023-09-06T08:24:14.358Z,20.93
2023-09-06T08:26:42.175Z,20.95
2023-09-06T08:29:09.976Z,20.95
2023-09-06T08:31:40.167Z,20.97
2023-09-06T08:34:08.126Z,20.98
2023-09-06T08:36:35.932Z,21.00
2023-09-06T08:39:04.271Z,21.02
2023-09-06T08:41:34.059Z,21.04
2023-09-06T08:44:07.365Z,20.93
2023-09-06T08:46:40.704Z,21.07
2023-09-06T08:49:11.412Z,21.11
2023-09-06T08:51:40.455Z,21.12
2023-09-06T08:54:08.582Z,21.13
2023-09-06T08:56:37.086Z,21.16
2023-09-06T08:59:07.546Z,21.18
2023-09-06T09:01:39.032Z,21.19
2023-09-06T09:04:10.772Z,21.22
2023-09-06T09:06:43.801Z,21.25
2023-09-06T09:09:17.548Z,21.26
2023-09-06T09:11:47.234Z,21.26
2023-09-06T09:14:22.546Z,21.31
2023-09-06T09:16:56.818Z,21.35
2023-09-06T09:19:26.608Z,21.36
2023-09-06T09:21:56.374Z,21.40
2023-09-06T09:24:29.027Z,21.38
2023-09-06T09:26:58.347Z,21.45
2023-09-06T09:29:26.251Z,21.38
2023-09-06T09:31:54.052Z,21.52
2023-09-06T09:34:22.833Z,21.54
2023-09-06T09:36:53.146Z,21.57
2023-09-06T09:39:27.094Z,21.59
2023-09-06T09:41:59.337Z,21.61
2023-09-06T09:44:28.222Z,21.64
2023-09-06T09:46:58.607Z,21.70
2023-09-06T09:49:27.574Z,21.70
2023-09-06T09:51:56.886Z,21.77
2023-09-06T09:54:25.980Z,21.81
2023-09-06T09:57:04.561Z,21.85
2023-09-06T09:59:33.102Z,21.88
2023-09-06T10:02:02.081Z,21.91
2023-09-06T10:04:30.794Z,21.94
2023-09-06T10:07:00.919Z,21.97
2023-09-06T10:09:30.115Z,22.02
2023-09-06T10:12:00.201Z,22.07
2023-09-06T10:14:29.445Z,22.12
2023-09-06T10:16:58.228Z,22.15
2023-09-06T10:19:26.146Z,22.21
2023-09-06T10:21:54.236Z,22.24
2023-09-06T10:24:24.691Z,22.30
2023-09-06T10:26:55.198Z,22.31
2023-09-06T10:29:25.753Z,22.43
2023-09-06T10:31:54.766Z,22.47
2023-09-06T10:34:24.808Z,22.52
2023-09-06T10:36:56.600Z,22.61
2023-09-06T10:39:27.186Z,22.71
2023-09-06T10:42:16.556Z,22.81
2023-09-06T10:45:10.808Z,22.88
2023-09-06T10:47:40.042Z,22.93
2023-09-06T10:50:13.810Z,23.01
2023-09-06T10:52:46.516Z,23.08
2023-09-06T10:55:19.650Z,23.16
2023-09-06T10:57:53.777Z,23.18
2023-09-06T11:00:26.791Z,23.27
2023-09-06T11:03:18.841Z,23.31
2023-09-06T11:05:53.881Z,23.37
2023-09-06T11:08:35.019Z,23.41
2023-09-06T11:11:10.317Z,23.45
2023-09-06T11:13:39.365Z,23.48
2023-09-06T11:16:12.538Z,23.50
2023-09-06T11:18:47.626Z,23.54
2023-09-06T11:21:19.989Z,23.55
2023-09-06T11:23:49.432Z,23.59
2023-09-06T11:26:18.969Z,23.65
2023-09-06T11:28:48.585Z,23.71
2023-09-06T11:31:26.457Z,23.76
2023-09-06T11:33:57.230Z,23.77
2023-09-06T11:36:29.451Z,23.83
2023-09-06T11:38:58.787Z,23.88
2023-09-06T11:41:29.508Z,23.90
2023-09-06T11:44:00.759Z,23.91
2023-09-06T11:46:29.610Z,23.91
2023-09-06T11:48:57.487Z,23.93
2023-09-06T11:51:26.525Z,23.95
2023-09-06T11:54:01.841Z,23.97
2023-09-06T11:56:34.635Z,23.97
2023-09-06T11:59:07.860Z,24.04
2023-09-06T12:01:41.673Z,24.07
2023-09-06T12:04:11.787Z,24.13
2023-09-06T12:06:42.818Z,24.23
2023-09-06T12:09:13.991Z,24.31
2023-09-06T12:11:43.783Z,24.37
2023-09-06T12:14:12.207Z,24.39
2023-09-06T12:16:41.200Z,24.39
2023-09-06T12:19:12.883Z,24.39
2023-09-06T12:21:40.871Z,24.41
2023-09-06T12:24:09.588Z,24.43
2023-09-06T12:26:37.489Z,24.44
2023-09-06T12:29:06.890Z,24.49
2023-09-06T12:31:34.771Z,24.58
2023-09-06T12:34:04.785Z,24.65
2023-09-06T12:36:32.757Z,24.73
2023-09-06T12:39:00.531Z,24.77
2023-09-06T12:41:28.410Z,24.80
2023-09-06T12:43:56.263Z,24.82
2023-09-06T12:46:25.525Z,24.81
2023-09-06T12:48:53.391Z,24.86
2023-09-06T12:51:21.191Z,24.89
2023-09-06T12:53:51.278Z,24.93
2023-09-06T12:56:20.211Z,25.01
2023-09-06T12:58:48.173Z,25.06
2023-09-06T13:01:16.117Z,25.09
2023-09-06T13:03:46.977Z,25.12
2023-09-06T13:06:15.048Z,25.19
2023-09-06T13:08:43.796Z,25.25
2023-09-06T13:11:14.517Z,25.28
2023-09-06T13:13:42.565Z,25.29
2023-09-06T13:16:10.481Z,25.33
2023-09-06T13:18:39.708Z,25.35
2023-09-06T13:21:09.707Z,25.37
2023-09-06T13:23:37.575Z,25.39
2023-09-06T13:26:05.632Z,25.32
2023-09-06T13:28:34.993Z,25.39
2023-09-06T13:31:04.405Z,25.42
2023-09-06T13:33:34.908Z,25.46
2023-09-06T13:36:05.499Z,25.50
2023-09-06T13:38:34.705Z,25.51
2023-09-06T13:41:02.695Z,25.52
2023-09-06T13:43:30.807Z,25.57
2023-09-06T13:45:59.018Z,25.62
2023-09-06T13:48:26.885Z,25.66
2023-09-06T13:50:54.673Z,25.67
2023-09-06T13:53:22.464Z,25.67
2023-09-06T13:55:51.910Z,25.70
2023-09-06T13:58:19.755Z,25.71
2023-09-06T14:00:47.532Z,25.74
2023-09-06T14:03:15.836Z,25.78
2023-09-06T14:05:43.873Z,25.82
2023-09-06T14:08:11.703Z,25.84
2023-09-06T14:10:39.533Z,25.96
2023-09-06T14:13:08.775Z,25.98
2023-09-06T14:15:36.640Z,25.99
2023-09-06T14:18:05.340Z,26.04
2023-09-06T14:20:35.724Z,26.06
2023-09-06T14:23:03.672Z,26.06
2023-09-06T14:25:31.496Z,26.07
2023-09-06T14:27:59.418Z,26.08
2023-09-06T14:30:28.682Z,26.10
2023-09-06T14:32:56.676Z,26.09
2023-09-06T14:35:24.715Z,26.09
2023-09-06T14:37:54.780Z,26.11
2023-09-06T14:40:22.617Z,26.12
2023-09-06T14:42:50.400Z,26.14
2023-09-06T14:45:18.258Z,26.14
2023-09-06T14:47:47.498Z,26.15
2023-09-06T14:50:15.437Z,26.14
2023-09-06T14:52:43.283Z,26.15
2023-09-06T14:55:11.580Z,26.15
2023-09-06T14:57:41.017Z,26.18
2023-09-06T15:00:10.899Z,26.19
2023-09-06T15:02:38.840Z,26.21
2023-09-06T15:05:09.255Z,26.22
2023-09-06T15:07:39.892Z,26.22
2023-09-06T15:10:12.438Z,26.24
2023-09-06T15:12:40.413Z,26.25
2023-09-06T15:15:11.093Z,26.23
2023-09-06T15:17:39.154Z,26.25
2023-09-06T15:20:12.147Z,26.28
2023-09-06T15:22:41.601Z,26.40
2023-09-06T15:25:12.352Z,26.44
2023-09-06T15:27:41.392Z,26.43
2023-09-06T15:30:09.755Z,26.45
2023-09-06T15:32:37.594Z,26.44
2023-09-06T15:35:08.736Z,26.43
2023-09-06T15:37:38.749Z,26.43
2023-09-06T15:40:07.870Z,26.45
2023-09-06T15:42:36.552Z,26.45
2023-09-06T15:45:09.546Z,26.46
2023-09-06T15:47:38.708Z,26.47
2023-09-06T15:50:09.554Z,26.48
2023-09-06T15:52:38.702Z,26.48
2023-09-06T15:55:07.662Z,26.46
2023-09-06T15:57:35.414Z,26.46
2023-09-06T16:00:24.229Z,26.45
2023-09-06T16:02:57.666Z,26.45
2023-09-06T16:05:25.751Z,26.47
2023-09-06T16:07:56.474Z,26.43
2023-09-06T16:10:26.059Z,26.45
2023-09-06T16:12:54.035Z,26.42
2023-09-06T16:15:23.944Z,26.43
2023-09-06T16:17:51.962Z,26.43
2023-09-06T16:20:20.537Z,26.31
2023-09-06T16:22:48.333Z,26.43
2023-09-06T16:25:17.515Z,26.43
2023-09-06T16:27:46.893Z,26.43
2023-09-06T16:30:15.269Z,26.40
2023-09-06T16:32:43.345Z,26.40
2023-09-06T16:35:12.253Z,26.39
2023-09-06T16:37:40.779Z,26.38
2023-09-06T16:40:12.228Z,26.38
2023-09-06T16:42:42.080Z,26.37
2023-09-06T16:45:11.086Z,26.37
2023-09-06T16:47:38.931Z,26.36
2023-09-06T16:50:08.213Z,26.34
2023-09-06T16:52:38.184Z,26.36
2023-09-06T16:55:07.083Z,26.34
2023-09-06T16:57:34.984Z,26.35
2023-09-06T17:00:05.779Z,26.33
2023-09-06T17:02:33.893Z,26.31
2023-09-06T17:05:01.807Z,26.27
2023-09-06T17:07:29.692Z,26.27
2023-09-06T17:09:57.774Z,26.25
2023-09-06T17:12:26.290Z,26.25
2023-09-06T17:14:55.293Z,26.24
2023-09-06T17:17:24.667Z,26.15
2023-09-06T17:19:52.521Z,26.22
2023-09-06T17:22:20.333Z,26.19
2023-09-06T17:24:50.576Z,26.18
2023-09-06T17:27:18.415Z,26.16
2023-09-06T17:29:48.364Z,26.15
2023-09-06T17:32:16.290Z,26.14
2023-09-06T17:34:45.569Z,26.13
2023-09-06T17:37:13.392Z,26.04
2023-09-06T17:39:41.988Z,26.10
2023-09-06T17:42:09.835Z,26.09
2023-09-06T17:44:38.627Z,26.08
2023-09-06T17:47:08.116Z,26.07
2023-09-06T17:49:36.257Z,26.05
2023-09-06T17:52:06.906Z,26.05
2023-09-06T17:54:34.900Z,26.04
2023-09-06T17:57:05.518Z,26.03
2023-09-06T17:59:33.424Z,26.01
2023-09-06T18:02:02.563Z,26.02
2023-09-06T18:04:31.792Z,26.01
2023-09-06T18:07:00.488Z,26.01
2023-09-06T18:09:30.939Z,25.99
2023-09-06T18:11:58.784Z,25.99
2023-09-06T18:14:26.611Z,25.97
2023-09-06T18:16:56.480Z,25.96
2023-09-06T18:19:26.599Z,25.94
2023-09-06T18:21:57.402Z,25.92
2023-09-06T18:24:25.280Z,25.92
2023-09-06T18:27:05.949Z,25.91
2023-09-06T18:29:37.818Z,25.87
2023-09-06T18:32:07.566Z,25.88
2023-09-06T18:34:35.621Z,25.86
2023-09-06T18:37:09.341Z,25.85
2023-09-06T18:39:39.517Z,25.83
2023-09-06T18:42:09.773Z,25.81
2023-09-06T18:44:39.516Z,25.80
2023-09-06T18:47:09.950Z,25.78
2023-09-06T18:49:38.908Z,25.76
2023-09-06T18:52:08.747Z,25.75
2023-09-06T18:54:37.439Z,25.72
2023-09-06T18:57:05.482Z,25.61
2023-09-06T18:59:34.664Z,25.69
2023-09-06T19:02:02.974Z,25.67
2023-09-06T19:04:30.757Z,25.64
2023-09-06T19:06:58.533Z,25.62
2023-09-06T19:09:26.323Z,25.60
2023-09-06T19:11:54.233Z,25.57
2023-09-06T19:14:23.014Z,25.54
2023-09-06T19:16:53.152Z,25.54
2023-09-06T19:19:22.308Z,25.51
2023-09-06T19:21:50.129Z,25.49
2023-09-06T19:24:17.973Z,25.47
2023-09-06T19:26:46.397Z,25.45
2023-09-06T19:29:14.265Z,25.43
2023-09-06T19:31:42.144Z,25.43
2023-09-06T19:34:11.331Z,25.40
2023-09-06T19:36:39.094Z,25.38
2023-09-06T19:39:12.473Z,25.37
2023-09-06T19:41:40.302Z,25.36
2023-09-06T19:44:08.326Z,25.34
2023-09-06T19:46:36.241Z,25.33
2023-09-06T19:49:06.628Z,25.27
2023-09-06T19:51:36.567Z,25.29
2023-09-06T19:54:04.414Z,25.29
2023-09-06T19:56:32.193Z,25.26
2023-09-06T19:59:00.767Z,25.27
2023-09-06T20:01:28.641Z,25.25
2023-09-06T20:03:56.660Z,25.24
2023-09-06T20:06:24.566Z,25.20
2023-09-06T20:08:53.879Z,25.19
2023-09-06T20:11:22.255Z,25.20
2023-09-06T20:13:50.350Z,25.18
2023-09-06T20:16:18.205Z,25.18
2023-09-06T20:18:46.743Z,25.06
2023-09-06T20:21:14.552Z,25.16
2023-09-06T20:23:42.508Z,25.15
2023-09-06T20:26:11.913Z,25.14
2023-09-06T20:28:39.717Z,25.12
2023-09-06T20:31:09.006Z,25.11
2023-09-06T20:33:37.005Z,24.98
2023-09-06T20:36:05.887Z,25.08
2023-09-06T20:38:34.495Z,25.07
2023-09-06T20:41:03.980Z,25.05
2023-09-06T20:43:34.460Z,25.03
2023-09-06T20:46:02.461Z,25.03
2023-09-06T20:48:30.902Z,24.90
2023-09-06T20:51:03.129Z,24.99
2023-09-06T20:53:32.493Z,24.96
2023-09-06T20:56:01.040Z,24.94
2023-09-06T20:58:29.060Z,24.94
2023-09-06T21:00:58.471Z,24.91
2023-09-06T21:03:27.060Z,24.90
2023-09-06T21:05:58.932Z,24.87
2023-09-06T21:08:26.993Z,24.82
2023-09-06T21:10:55.075Z,24.83
2023-09-06T21:13:23.164Z,24.81
2023-09-06T21:15:53.249Z,24.79
2023-09-06T21:18:22.605Z,24.78
2023-09-06T21:20:50.555Z,24.75
2023-09-06T21:23:18.412Z,24.68
2023-09-06T21:25:46.364Z,24.72
2023-09-06T21:28:14.229Z,24.69
2023-09-06T21:30:43.155Z,24.66
2023-09-06T21:33:10.950Z,24.63
2023-09-06T21:35:43.856Z,24.59
2023-09-06T21:38:12.513Z,24.57
2023-09-06T21:40:41.783Z,24.54
2023-09-06T21:43:17.791Z,24.52
2023-09-06T21:45:46.750Z,24.50
2023-09-06T21:48:15.142Z,24.49
2023-09-06T21:50:50.119Z,24.44
2023-09-06T21:53:18.071Z,24.46
2023-09-06T21:55:45.796Z,24.45
2023-09-06T21:58:13.999Z,24.43
2023-09-06T22:00:41.796Z,24.42
2023-09-06T22:03:09.659Z,24.42
2023-09-06T22:05:37.468Z,24.40
2023-09-06T22:08:07.117Z,24.39
2023-09-06T22:10:34.833Z,24.37
2023-09-06T22:13:03.821Z,24.36
2023-09-06T22:15:31.663Z,24.34
2023-09-06T22:17:59.858Z,24.34
2023-09-06T22:20:31.330Z,24.31
2023-09-06T22:22:59.413Z,24.31
2023-09-06T22:25:29.129Z,24.29
2023-09-06T22:27:58.495Z,24.27
2023-09-06T22:30:26.347Z,24.26
2023-09-06T22:32:54.185Z,24.24
2023-09-06T22:35:22.052Z,24.14
2023-09-06T22:37:49.867Z,24.21
2023-09-06T22:40:17.909Z,24.18
2023-09-06T22:42:47.083Z,24.18
2023-09-06T22:45:15.323Z,24.16
2023-09-06T22:47:43.166Z,24.15
2023-09-06T22:50:12.048Z,24.11
2023-09-06T22:52:42.363Z,24.10
2023-09-06T22:55:11.719Z,24.08
2023-09-06T22:57:39.992Z,24.07
2023-09-06T23:00:12.156Z,24.04
2023-09-06T23:02:40.060Z,23.97
2023-09-06T23:05:10.316Z,23.93
2023-09-06T23:07:38.319Z,23.96
2023-09-06T23:10:07.101Z,23.92
2023-09-06T23:12:34.951Z,23.89
2023-09-06T23:15:04.766Z,23.87
2023-09-06T23:17:38.518Z,23.86
2023-09-06T23:20:14.920Z,23.83
2023-09-06T23:22:45.637Z,23.82
2023-09-06T23:25:16.024Z,23.80
2023-09-06T23:27:46.034Z,23.79
2023-09-06T23:30:18.149Z,23.76
2023-09-06T23:32:51.648Z,23.73
2023-09-06T23:35:21.714Z,23.71
2023-09-06T23:37:51.429Z,23.70
2023-09-06T23:40:23.667Z,23.67
2023-09-06T23:42:54.403Z,23.65
2023-09-06T23:45:24.288Z,23.62
2023-09-06T23:47:56.550Z,23.61
2023-09-06T23:50:27.089Z,23.57
2023-09-06T23:52:57.153Z,23.57
2023-09-06T23:55:25.783Z,23.52
2023-09-06T23:57:53.789Z,23.55
